Deerfield River @ West Deerfield, Ma

Deerfield River at West Deerfield
 Total Drainage Area: 558 sq. miles 
 Drainage Area Controlled by Corps Dams: 0 sq. miles (0%) 
 Warning Flow/Stage: 10,500 cfs / 7.0 feet 
 Flood Flow/Stage: 14,200 cfs / 8.0 feet 
Date Time
(Eastern)
Stage
(ft)
Flow
(cfs)
CSM
(cfs / sq. mi.)
Jun-25 12:30 am 2.63 599 1.1
Jun-24 11:30 pm 2.74 699 1.3
Jun-24 10:30 pm 2.88 837 1.5
Jun-24 09:30 pm 3.09 1,071 1.9
Jun-24 08:30 pm 3.14 1,132 2.0
Jun-24 07:30 pm 3.13 1,120 2.0
Jun-24 06:30 pm 2.77 727 1.3
Jun-24 05:30 pm 2.33 370 .7
Jun-24 04:30 pm 2.31 357 .6
Jun-24 03:30 pm 2.33 370 .7
Jun-24 02:30 pm 2.34 377 .7
Jun-24 01:30 pm 2.35 383 .7
Jun-24 12:30 pm 2.40 418 .8
Jun-24 11:30 am 2.70 662 1.2
Jun-24 10:30 am 2.77 727 1.3
Jun-24 09:30 am 2.38 404 .7
Jun-24 08:30 am 2.35 383 .7
Jun-24 07:30 am 2.34 377 .7
Jun-24 06:30 am 2.34 377 .7
Jun-24 05:30 am 2.34 377 .7
Jun-24 04:30 am 2.34 377 .7
Jun-24 03:30 am 2.36 390 .7
Jun-24 02:30 am 2.47 470 .8
Jun-24 01:30 am 2.68 643 1.2
Jun-24 12:30 am 2.87 827 1.5
Report Generated June 25, 2024 04:53 am